sensor_id;sensor_type;location;lat;lon;timestamp;temperature;humidity
50690;DHT22;54375;48.298;11.238;2023-04-20T00:03:34;4.10;97.60
50690;DHT22;54375;48.298;11.238;2023-04-20T00:18:36;4.10;97.30
50690;DHT22;54375;48.298;11.238;2023-04-20T00:33:38;4.10;97.10
50690;DHT22;54375;48.298;11.238;2023-04-20T00:48:41;4.10;97.10
50690;DHT22;54375;48.298;11.238;2023-04-20T01:03:43;4.10;96.90
50690;DHT22;54375;48.298;11.238;2023-04-20T01:18:46;4.00;97.00
50690;DHT22;54375;48.298;11.238;2023-04-20T01:33:49;4.00;97.10
50690;DHT22;54375;48.298;11.238;2023-04-20T01:48:51;4.00;97.10
50690;DHT22;54375;48.298;11.238;2023-04-20T02:03:54;3.90;97.20
50690;DHT22;54375;48.298;11.238;2023-04-20T02:18:57;3.90;97.40
50690;DHT22;54375;48.298;11.238;2023-04-20T02:33:59;3.80;97.60
50690;DHT22;54375;48.298;11.238;2023-04-20T02:49:01;3.80;98.00
50690;DHT22;54375;48.298;11.238;2023-04-20T03:04:04;3.80;97.80
50690;DHT22;54375;48.298;11.238;2023-04-20T03:19:06;3.80;98.10
50690;DHT22;54375;48.298;11.238;2023-04-20T03:34:08;3.90;98.00
50690;DHT22;54375;48.298;11.238;2023-04-20T03:49:10;4.00;97.80
50690;DHT22;54375;48.298;11.238;2023-04-20T04:04:13;4.00;97.60
50690;DHT22;54375;48.298;11.238;2023-04-20T04:19:16;4.10;97.60
50690;DHT22;54375;48.298;11.238;2023-04-20T04:34:18;4.10;97.60
50690;DHT22;54375;48.298;11.238;2023-04-20T04:49:20;4.10;97.90
50690;DHT22;54375;48.298;11.238;2023-04-20T05:04:23;4.20;97.60
50690;DHT22;54375;48.298;11.238;2023-04-20T05:19:25;4.20;97.70
50690;DHT22;54375;48.298;11.238;2023-04-20T05:34:28;4.30;97.60
50690;DHT22;54375;48.298;11.238;2023-04-20T05:49:31;4.20;97.10
50690;DHT22;54375;48.298;11.238;2023-04-20T06:04:33;4.30;96.70
50690;DHT22;54375;48.298;11.238;2023-04-20T06:19:35;4.40;96.80
50690;DHT22;54375;48.298;11.238;2023-04-20T06:34:37;4.50;96.80
50690;DHT22;54375;48.298;11.238;2023-04-20T06:49:39;4.70;96.20
50690;DHT22;54375;48.298;11.238;2023-04-20T07:04:42;4.80;95.80
50690;DHT22;54375;48.298;11.238;2023-04-20T07:19:44;4.90;95.10
50690;DHT22;54375;48.298;11.238;2023-04-20T07:34:46;5.00;95.40
50690;DHT22;54375;48.298;11.238;2023-04-20T07:49:48;4.80;95.60
50690;DHT22;54375;48.298;11.238;2023-04-20T08:04:51;4.70;95.70
50690;DHT22;54375;48.298;11.238;2023-04-20T08:19:53;4.80;95.90
50690;DHT22;54375;48.298;11.238;2023-04-20T08:34:55;4.70;95.70
50690;DHT22;54375;48.298;11.238;2023-04-20T08:49:58;4.60;95.60
50690;DHT22;54375;48.298;11.238;2023-04-20T09:05:01;4.70;95.70
50690;DHT22;54375;48.298;11.238;2023-04-20T09:20:05;4.70;95.90
50690;DHT22;54375;48.298;11.238;2023-04-20T09:35:08;4.80;96.10
50690;DHT22;54375;48.298;11.238;2023-04-20T09:50:11;5.20;95.80
50690;DHT22;54375;48.298;11.238;2023-04-20T10:05:13;5.40;95.40
50690;DHT22;54375;48.298;11.238;2023-04-20T10:20:20;5.40;95.30
50690;DHT22;54375;48.298;11.238;2023-04-20T10:35:22;5.60;95.00
50690;DHT22;54375;48.298;11.238;2023-04-20T10:50:25;5.70;94.70
50690;DHT22;54375;48.298;11.238;2023-04-20T11:05:27;5.90;93.90
50690;DHT22;54375;48.298;11.238;2023-04-20T11:20:29;6.10;94.30
50690;DHT22;54375;48.298;11.238;2023-04-20T11:35:36;6.20;93.60
50690;DHT22;54375;48.298;11.238;2023-04-20T11:50:38;6.40;93.70
50690;DHT22;54375;48.298;11.238;2023-04-20T12:05:41;6.60;93.20
50690;DHT22;54375;48.298;11.238;2023-04-20T12:20:43;6.70;92.90
50690;DHT22;54375;48.298;11.238;2023-04-20T12:35:45;6.80;93.20
50690;DHT22;54375;48.298;11.238;2023-04-20T12:50:47;7.30;92.00
50690;DHT22;54375;48.298;11.238;2023-04-20T13:05:49;7.40;91.90
50690;DHT22;54375;48.298;11.238;2023-04-20T13:20:52;7.60;91.20
50690;DHT22;54375;48.298;11.238;2023-04-20T13:35:54;7.60;91.20
50690;DHT22;54375;48.298;11.238;2023-04-20T13:50:56;7.50;91.40
50690;DHT22;54375;48.298;11.238;2023-04-20T14:05:58;7.40;91.80
50690;DHT22;54375;48.298;11.238;2023-04-20T14:21:00;7.60;90.90
50690;DHT22;54375;48.298;11.238;2023-04-20T14:36:03;7.60;91.50
50690;DHT22;54375;48.298;11.238;2023-04-20T14:51:05;7.80;91.70
50690;DHT22;54375;48.298;11.238;2023-04-20T15:06:08;8.00;91.20
50690;DHT22;54375;48.298;11.238;2023-04-20T15:21:10;8.20;91.00
50690;DHT22;54375;48.298;11.238;2023-04-20T15:36:12;8.40;91.00
50690;DHT22;54375;48.298;11.238;2023-04-20T15:51:14;8.70;90.70
50690;DHT22;54375;48.298;11.238;2023-04-20T16:06:16;8.90;90.30
50690;DHT22;54375;48.298;11.238;2023-04-20T16:21:18;8.90;89.70
50690;DHT22;54375;48.298;11.238;2023-04-20T16:36:21;8.70;90.10
50690;DHT22;54375;48.298;11.238;2023-04-20T16:51:23;8.20;90.60
50690;DHT22;54375;48.298;11.238;2023-04-20T17:06:25;8.10;91.50
50690;DHT22;54375;48.298;11.238;2023-04-20T17:21:27;8.00;91.70
50690;DHT22;54375;48.298;11.238;2023-04-20T17:36:29;7.70;92.40
50690;DHT22;54375;48.298;11.238;2023-04-20T17:51:32;7.60;93.20
50690;DHT22;54375;48.298;11.238;2023-04-20T18:06:35;7.40;93.60
50690;DHT22;54375;48.298;11.238;2023-04-20T18:21:37;7.20;94.20
50690;DHT22;54375;48.298;11.238;2023-04-20T18:36:39;7.10;94.60
50690;DHT22;54375;48.298;11.238;2023-04-20T18:51:41;6.90;94.30
50690;DHT22;54375;48.298;11.238;2023-04-20T19:06:44;6.80;94.80
50690;DHT22;54375;48.298;11.238;2023-04-20T19:21:46;6.70;94.90
50690;DHT22;54375;48.298;11.238;2023-04-20T19:36:48;6.70;95.20
50690;DHT22;54375;48.298;11.238;2023-04-20T19:51:50;6.60;95.30
50690;DHT22;54375;48.298;11.238;2023-04-20T20:06:52;6.50;95.50
50690;DHT22;54375;48.298;11.238;2023-04-20T20:21:55;6.50;95.80
50690;DHT22;54375;48.298;11.238;2023-04-20T20:36:57;6.60;95.80
50690;DHT22;54375;48.298;11.238;2023-04-20T20:51:59;6.50;96.20
50690;DHT22;54375;48.298;11.238;2023-04-20T21:07:01;6.30;96.10
50690;DHT22;54375;48.298;11.238;2023-04-20T21:22:03;6.30;96.00
50690;DHT22;54375;48.298;11.238;2023-04-20T21:37:05;6.30;95.90
50690;DHT22;54375;48.298;11.238;2023-04-20T21:52:08;6.20;96.00
50690;DHT22;54375;48.298;11.238;2023-04-20T22:07:10;6.40;95.80
50690;DHT22;54375;48.298;11.238;2023-04-20T22:22:12;6.40;95.50
50690;DHT22;54375;48.298;11.238;2023-04-20T22:37:14;6.40;95.50
50690;DHT22;54375;48.298;11.238;2023-04-20T22:52:16;6.50;95.20
50690;DHT22;54375;48.298;11.238;2023-04-20T23:07:18;6.50;95.30
50690;DHT22;54375;48.298;11.238;2023-04-20T23:22:21;6.50;95.70
50690;DHT22;54375;48.298;11.238;2023-04-20T23:37:23;6.50;95.40
50690;DHT22;54375;48.298;11.238;2023-04-20T23:52:26;6.50;95.50
